sensor_id;sensor_type;location;lat;lon;timestamp;P1;durP1;ratioP1;P2;durP2;ratioP2
4313;SDS011;2170;48.794;9.182;2024-01-15T00:01:08;17.17;;;9.97;;
4313;SDS011;2170;48.794;9.182;2024-01-15T00:03:52;16.87;;;11.47;;
4313;SDS011;2170;48.794;9.182;2024-01-15T00:06:49;18.57;;;10.30;;
4313;SDS011;2170;48.794;9.182;2024-01-15T00:13:22;19.73;;;10.50;;
4313;SDS011;2170;48.794;9.182;2024-01-15T00:53:36;18.13;;;10.10;;
4313;SDS011;2170;48.794;9.182;2024-01-15T01:32:10;14.50;;;9.23;;
4313;SDS011;2170;48.794;9.182;2024-01-15T04:21:02;12.07;;;7.70;;
4313;SDS011;2170;48.794;9.182;2024-01-15T04:31:07;13.30;;;9.33;;
4313;SDS011;2170;48.794;9.182;2024-01-15T05:51:32;9.80;;;6.37;;
4313;SDS011;2170;48.794;9.182;2024-01-15T05:57:51;11.47;;;7.30;;
4313;SDS011;2170;48.794;9.182;2024-01-15T06:04:00;10.67;;;7.53;;
4313;SDS011;2170;48.794;9.182;2024-01-15T06:06:55;12.70;;;8.47;;
4313;SDS011;2170;48.794;9.182;2024-01-15T06:09:53;13.03;;;8.83;;
4313;SDS011;2170;48.794;9.182;2024-01-15T06:12:47;11.93;;;7.90;;
4313;SDS011;2170;48.794;9.182;2024-01-15T06:21:31;16.07;;;9.60;;
4313;SDS011;2170;48.794;9.182;2024-01-15T06:24:19;12.17;;;8.20;;
4313;SDS011;2170;48.794;9.182;2024-01-15T06:30:57;10.93;;;8.50;;
4313;SDS011;2170;48.794;9.182;2024-01-15T06:37:03;14.27;;;9.00;;
4313;SDS011;2170;48.794;9.182;2024-01-15T06:56:50;14.67;;;10.27;;
4313;SDS011;2170;48.794;9.182;2024-01-15T07:13:10;11.63;;;7.20;;
4313;SDS011;2170;48.794;9.182;2024-01-15T07:19:29;10.30;;;7.90;;
4313;SDS011;2170;48.794;9.182;2024-01-15T08:21:17;10.57;;;7.13;;
4313;SDS011;2170;48.794;9.182;2024-01-15T10:00:26;7.80;;;5.47;;
4313;SDS011;2170;48.794;9.182;2024-01-15T10:56:40;5.30;;;4.43;;
4313;SDS011;2170;48.794;9.182;2024-01-15T13:02:21;8.10;;;6.40;;
4313;SDS011;2170;48.794;9.182;2024-01-15T13:06:36;9.57;;;6.73;;
4313;SDS011;2170;48.794;9.182;2024-01-15T13:08:59;6.93;;;5.60;;
4313;SDS011;2170;48.794;9.182;2024-01-15T13:12:20;9.23;;;6.63;;
4313;SDS011;2170;48.794;9.182;2024-01-15T13:18:37;7.53;;;5.73;;
4313;SDS011;2170;48.794;9.182;2024-01-15T13:21:36;8.03;;;6.30;;
4313;SDS011;2170;48.794;9.182;2024-01-15T13:24:30;6.37;;;5.40;;
4313;SDS011;2170;48.794;9.182;2024-01-15T13:27:05;6.83;;;6.13;;
4313;SDS011;2170;48.794;9.182;2024-01-15T13:29:45;5.97;;;5.33;;
4313;SDS011;2170;48.794;9.182;2024-01-15T13:32:33;6.17;;;5.53;;
4313;SDS011;2170;48.794;9.182;2024-01-15T13:35:01;7.10;;;5.73;;
4313;SDS011;2170;48.794;9.182;2024-01-15T13:37:36;6.93;;;5.80;;
4313;SDS011;2170;48.794;9.182;2024-01-15T13:40:16;8.37;;;5.70;;
4313;SDS011;2170;48.794;9.182;2024-01-15T13:42:45;5.23;;;4.60;;
4313;SDS011;2170;48.794;9.182;2024-01-15T13:45:19;6.37;;;5.47;;
4313;SDS011;2170;48.794;9.182;2024-01-15T13:47:51;12.43;;;6.43;;
4313;SDS011;2170;48.794;9.182;2024-01-15T13:50:21;5.43;;;4.87;;
4313;SDS011;2170;48.794;9.182;2024-01-15T13:52:50;7.40;;;6.60;;
4313;SDS011;2170;48.794;9.182;2024-01-15T13:55:26;8.97;;;5.07;;
4313;SDS011;2170;48.794;9.182;2024-01-15T13:58:42;5.97;;;4.57;;
4313;SDS011;2170;48.794;9.182;2024-01-15T14:15:22;7.60;;;5.30;;
4313;SDS011;2170;48.794;9.182;2024-01-15T14:18:32;6.60;;;6.00;;
4313;SDS011;2170;48.794;9.182;2024-01-15T14:25:10;5.70;;;4.60;;
4313;SDS011;2170;48.794;9.182;2024-01-15T14:27:51;4.80;;;4.50;;
4313;SDS011;2170;48.794;9.182;2024-01-15T14:30:27;5.17;;;4.70;;
4313;SDS011;2170;48.794;9.182;2024-01-15T14:33:10;4.73;;;4.30;;
4313;SDS011;2170;48.794;9.182;2024-01-15T14:35:54;4.87;;;4.47;;
4313;SDS011;2170;48.794;9.182;2024-01-15T14:38:27;6.60;;;4.60;;
4313;SDS011;2170;48.794;9.182;2024-01-15T14:41:00;5.00;;;4.47;;
4313;SDS011;2170;48.794;9.182;2024-01-15T14:43:46;5.83;;;5.33;;
4313;SDS011;2170;48.794;9.182;2024-01-15T14:46:16;7.20;;;5.53;;
4313;SDS011;2170;48.794;9.182;2024-01-15T14:48:43;6.40;;;5.80;;
4313;SDS011;2170;48.794;9.182;2024-01-15T14:51:11;7.30;;;6.50;;
4313;SDS011;2170;48.794;9.182;2024-01-15T14:53:38;7.27;;;6.57;;
4313;SDS011;2170;48.794;9.182;2024-01-15T14:56:06;7.30;;;6.60;;
4313;SDS011;2170;48.794;9.182;2024-01-15T14:58:34;8.97;;;6.77;;
4313;SDS011;2170;48.794;9.182;2024-01-15T15:01:02;8.77;;;7.93;;
4313;SDS011;2170;48.794;9.182;2024-01-15T15:03:37;8.33;;;7.13;;
4313;SDS011;2170;48.794;9.182;2024-01-15T15:06:11;8.67;;;7.73;;
4313;SDS011;2170;48.794;9.182;2024-01-15T15:08:52;8.40;;;7.57;;
4313;SDS011;2170;48.794;9.182;2024-01-15T15:11:21;9.37;;;7.60;;
4313;SDS011;2170;48.794;9.182;2024-01-15T15:13:49;8.60;;;7.63;;
4313;SDS011;2170;48.794;9.182;2024-01-15T15:16:21;8.70;;;7.90;;
4313;SDS011;2170;48.794;9.182;2024-01-15T15:18:50;9.83;;;8.83;;
4313;SDS011;2170;48.794;9.182;2024-01-15T15:21:17;11.30;;;8.13;;
4313;SDS011;2170;48.794;9.182;2024-01-15T15:23:45;8.60;;;7.73;;
4313;SDS011;2170;48.794;9.182;2024-01-15T15:26:13;11.93;;;8.53;;
4313;SDS011;2170;48.794;9.182;2024-01-15T15:28:41;10.83;;;8.10;;
4313;SDS011;2170;48.794;9.182;2024-01-15T15:31:10;12.90;;;8.77;;
4313;SDS011;2170;48.794;9.182;2024-01-15T15:33:38;8.20;;;7.23;;
4313;SDS011;2170;48.794;9.182;2024-01-15T15:36:07;7.97;;;6.93;;
4313;SDS011;2170;48.794;9.182;2024-01-15T15:38:35;10.17;;;8.40;;
4313;SDS011;2170;48.794;9.182;2024-01-15T15:41:03;10.70;;;8.50;;
4313;SDS011;2170;48.794;9.182;2024-01-15T15:43:30;8.93;;;8.00;;
4313;SDS011;2170;48.794;9.182;2024-01-15T15:45:58;8.97;;;8.03;;
4313;SDS011;2170;48.794;9.182;2024-01-15T15:48:25;8.47;;;7.67;;
4313;SDS011;2170;48.794;9.182;2024-01-15T15:50:54;10.30;;;7.47;;
4313;SDS011;2170;48.794;9.182;2024-01-15T15:53:28;7.93;;;7.13;;
4313;SDS011;2170;48.794;9.182;2024-01-15T15:56:43;8.80;;;7.73;;
4313;SDS011;2170;48.794;9.182;2024-01-15T15:59:20;7.60;;;6.83;;
4313;SDS011;2170;48.794;9.182;2024-01-15T16:01:52;8.33;;;7.37;;
4313;SDS011;2170;48.794;9.182;2024-01-15T16:04:22;8.03;;;6.70;;
4313;SDS011;2170;48.794;9.182;2024-01-15T16:07:24;8.30;;;7.17;;
4313;SDS011;2170;48.794;9.182;2024-01-15T16:09:58;7.73;;;6.57;;
4313;SDS011;2170;48.794;9.182;2024-01-15T16:12:34;7.43;;;6.37;;
4313;SDS011;2170;48.794;9.182;2024-01-15T16:15:05;7.83;;;7.07;;
4313;SDS011;2170;48.794;9.182;2024-01-15T16:17:45;8.90;;;6.80;;
4313;SDS011;2170;48.794;9.182;2024-01-15T16:20:29;7.60;;;6.80;;
4313;SDS011;2170;48.794;9.182;2024-01-15T16:22:56;7.70;;;6.70;;
4313;SDS011;2170;48.794;9.182;2024-01-15T16:25:25;7.13;;;6.43;;
4313;SDS011;2170;48.794;9.182;2024-01-15T16:27:52;7.90;;;6.67;;
4313;SDS011;2170;48.794;9.182;2024-01-15T16:30:19;7.67;;;6.57;;
4313;SDS011;2170;48.794;9.182;2024-01-15T16:32:47;8.10;;;7.30;;
4313;SDS011;2170;48.794;9.182;2024-01-15T16:35:17;7.20;;;6.53;;
4313;SDS011;2170;48.794;9.182;2024-01-15T16:37:45;8.27;;;6.57;;
4313;SDS011;2170;48.794;9.182;2024-01-15T16:40:12;8.17;;;7.30;;
4313;SDS011;2170;48.794;9.182;2024-01-15T16:42:41;9.07;;;7.27;;
4313;SDS011;2170;48.794;9.182;2024-01-15T16:45:10;6.83;;;6.13;;
4313;SDS011;2170;48.794;9.182;2024-01-15T16:47:38;7.60;;;6.90;;
4313;SDS011;2170;48.794;9.182;2024-01-15T16:50:08;7.50;;;6.27;;
4313;SDS011;2170;48.794;9.182;2024-01-15T16:52:38;7.43;;;5.63;;
4313;SDS011;2170;48.794;9.182;2024-01-15T16:55:09;8.93;;;6.17;;
4313;SDS011;2170;48.794;9.182;2024-01-15T16:57:45;6.50;;;5.50;;
4313;SDS011;2170;48.794;9.182;2024-01-15T17:00:13;6.70;;;6.10;;
4313;SDS011;2170;48.794;9.182;2024-01-15T17:02:44;7.27;;;6.47;;
4313;SDS011;2170;48.794;9.182;2024-01-15T17:05:17;7.50;;;5.93;;
4313;SDS011;2170;48.794;9.182;2024-01-15T17:07:48;8.57;;;6.33;;
4313;SDS011;2170;48.794;9.182;2024-01-15T17:10:20;7.10;;;6.27;;
4313;SDS011;2170;48.794;9.182;2024-01-15T17:12:54;6.47;;;5.73;;
4313;SDS011;2170;48.794;9.182;2024-01-15T17:15:29;6.30;;;5.73;;
4313;SDS011;2170;48.794;9.182;2024-01-15T17:17:59;9.77;;;7.20;;
4313;SDS011;2170;48.794;9.182;2024-01-15T17:20:30;8.03;;;7.13;;
4313;SDS011;2170;48.794;9.182;2024-01-15T17:22:58;7.67;;;6.50;;
4313;SDS011;2170;48.794;9.182;2024-01-15T17:25:25;8.10;;;6.90;;
4313;SDS011;2170;48.794;9.182;2024-01-15T17:27:54;7.67;;;6.83;;
4313;SDS011;2170;48.794;9.182;2024-01-15T17:30:25;8.30;;;7.10;;
4313;SDS011;2170;48.794;9.182;2024-01-15T17:32:53;10.63;;;7.17;;
4313;SDS011;2170;48.794;9.182;2024-01-15T17:35:21;9.90;;;8.20;;
4313;SDS011;2170;48.794;9.182;2024-01-15T17:37:49;7.73;;;6.93;;
4313;SDS011;2170;48.794;9.182;2024-01-15T17:40:17;8.90;;;6.80;;
4313;SDS011;2170;48.794;9.182;2024-01-15T17:42:49;7.83;;;6.93;;
4313;SDS011;2170;48.794;9.182;2024-01-15T17:45:18;6.67;;;6.03;;
4313;SDS011;2170;48.794;9.182;2024-01-15T17:47:46;8.20;;;7.00;;
4313;SDS011;2170;48.794;9.182;2024-01-15T17:50:16;7.23;;;6.10;;
4313;SDS011;2170;48.794;9.182;2024-01-15T17:52:45;8.40;;;6.70;;
4313;SDS011;2170;48.794;9.182;2024-01-15T17:55:13;6.70;;;5.70;;
4313;SDS011;2170;48.794;9.182;2024-01-15T17:57:45;7.37;;;6.37;;
4313;SDS011;2170;48.794;9.182;2024-01-15T18:00:16;6.00;;;4.97;;
4313;SDS011;2170;48.794;9.182;2024-01-15T18:02:46;7.10;;;6.40;;
4313;SDS011;2170;48.794;9.182;2024-01-15T18:05:21;8.00;;;6.60;;
4313;SDS011;2170;48.794;9.182;2024-01-15T18:07:50;7.77;;;6.07;;
4313;SDS011;2170;48.794;9.182;2024-01-15T18:10:24;6.40;;;5.80;;
4313;SDS011;2170;48.794;9.182;2024-01-15T18:12:58;7.57;;;6.60;;
4313;SDS011;2170;48.794;9.182;2024-01-15T18:15:32;8.10;;;6.37;;
4313;SDS011;2170;48.794;9.182;2024-01-15T18:17:59;6.73;;;5.97;;
4313;SDS011;2170;48.794;9.182;2024-01-15T18:20:27;7.30;;;5.87;;
4313;SDS011;2170;48.794;9.182;2024-01-15T18:23:01;7.80;;;6.80;;
4313;SDS011;2170;48.794;9.182;2024-01-15T18:25:30;7.57;;;6.43;;
4313;SDS011;2170;48.794;9.182;2024-01-15T18:27:58;6.90;;;6.20;;
4313;SDS011;2170;48.794;9.182;2024-01-15T18:30:28;9.10;;;6.77;;
4313;SDS011;2170;48.794;9.182;2024-01-15T18:33:02;7.47;;;6.77;;
4313;SDS011;2170;48.794;9.182;2024-01-15T18:35:59;7.23;;;6.13;;
4313;SDS011;2170;48.794;9.182;2024-01-15T18:38:32;8.00;;;5.77;;
4313;SDS011;2170;48.794;9.182;2024-01-15T18:41:00;7.97;;;5.90;;
4313;SDS011;2170;48.794;9.182;2024-01-15T18:43:33;7.50;;;6.20;;
4313;SDS011;2170;48.794;9.182;2024-01-15T18:46:04;6.00;;;5.40;;
4313;SDS011;2170;48.794;9.182;2024-01-15T18:48:37;8.50;;;6.27;;
4313;SDS011;2170;48.794;9.182;2024-01-15T18:51:05;6.20;;;5.60;;
4313;SDS011;2170;48.794;9.182;2024-01-15T18:53:35;7.17;;;6.03;;
4313;SDS011;2170;48.794;9.182;2024-01-15T18:56:05;6.73;;;5.83;;
4313;SDS011;2170;48.794;9.182;2024-01-15T18:58:33;7.30;;;6.53;;
4313;SDS011;2170;48.794;9.182;2024-01-15T19:01:24;7.07;;;5.60;;
4313;SDS011;2170;48.794;9.182;2024-01-15T19:04:03;6.27;;;5.67;;
4313;SDS011;2170;48.794;9.182;2024-01-15T19:06:38;5.97;;;5.47;;
4313;SDS011;2170;48.794;9.182;2024-01-15T19:09:32;8.33;;;6.03;;
4313;SDS011;2170;48.794;9.182;2024-01-15T19:12:03;5.67;;;5.17;;
4313;SDS011;2170;48.794;9.182;2024-01-15T19:14:31;7.83;;;5.80;;
4313;SDS011;2170;48.794;9.182;2024-01-15T19:16:59;5.53;;;5.03;;
4313;SDS011;2170;48.794;9.182;2024-01-15T19:19:33;7.43;;;5.60;;
4313;SDS011;2170;48.794;9.182;2024-01-15T19:22:02;7.80;;;5.93;;
4313;SDS011;2170;48.794;9.182;2024-01-15T19:24:34;5.97;;;5.00;;
4313;SDS011;2170;48.794;9.182;2024-01-15T19:27:04;5.27;;;4.77;;
4313;SDS011;2170;48.794;9.182;2024-01-15T19:29:34;8.67;;;6.03;;
4313;SDS011;2170;48.794;9.182;2024-01-15T19:32:08;4.23;;;3.83;;
4313;SDS011;2170;48.794;9.182;2024-01-15T19:34:50;8.80;;;5.20;;
4313;SDS011;2170;48.794;9.182;2024-01-15T19:37:26;4.93;;;4.37;;
4313;SDS011;2170;48.794;9.182;2024-01-15T19:39:59;6.20;;;5.60;;
4313;SDS011;2170;48.794;9.182;2024-01-15T19:42:29;5.60;;;5.10;;
4313;SDS011;2170;48.794;9.182;2024-01-15T19:45:13;6.20;;;5.60;;
4313;SDS011;2170;48.794;9.182;2024-01-15T19:47:44;8.10;;;5.30;;
4313;SDS011;2170;48.794;9.182;2024-01-15T19:50:15;5.00;;;4.60;;
4313;SDS011;2170;48.794;9.182;2024-01-15T19:52:50;6.80;;;5.60;;
4313;SDS011;2170;48.794;9.182;2024-01-15T19:55:31;5.20;;;4.40;;
4313;SDS011;2170;48.794;9.182;2024-01-15T19:58:06;5.60;;;5.10;;
4313;SDS011;2170;48.794;9.182;2024-01-15T20:00:34;6.03;;;5.40;;
4313;SDS011;2170;48.794;9.182;2024-01-15T20:03:14;5.00;;;4.50;;
4313;SDS011;2170;48.794;9.182;2024-01-15T20:05:51;6.33;;;5.73;;
4313;SDS011;2170;48.794;9.182;2024-01-15T20:08:23;6.00;;;5.40;;
4313;SDS011;2170;48.794;9.182;2024-01-15T20:10:56;5.30;;;4.37;;
4313;SDS011;2170;48.794;9.182;2024-01-15T20:13:29;5.13;;;4.30;;
4313;SDS011;2170;48.794;9.182;2024-01-15T20:16:04;5.90;;;5.40;;
4313;SDS011;2170;48.794;9.182;2024-01-15T20:18:43;5.90;;;5.27;;
4313;SDS011;2170;48.794;9.182;2024-01-15T20:41:43;5.33;;;4.37;;
4313;SDS011;2170;48.794;9.182;2024-01-15T20:44:54;5.63;;;4.17;;
4313;SDS011;2170;48.794;9.182;2024-01-15T21:09:32;6.40;;;5.77;;
4313;SDS011;2170;48.794;9.182;2024-01-15T21:12:31;7.10;;;5.40;;
4313;SDS011;2170;48.794;9.182;2024-01-15T21:16:15;7.00;;;5.57;;
4313;SDS011;2170;48.794;9.182;2024-01-15T21:19:16;5.47;;;4.70;;
4313;SDS011;2170;48.794;9.182;2024-01-15T21:22:04;5.90;;;4.83;;
4313;SDS011;2170;48.794;9.182;2024-01-15T21:24:54;4.83;;;4.43;;
4313;SDS011;2170;48.794;9.182;2024-01-15T21:27:34;6.73;;;5.13;;
4313;SDS011;2170;48.794;9.182;2024-01-15T21:30:26;4.80;;;4.40;;
4313;SDS011;2170;48.794;9.182;2024-01-15T21:33:02;7.17;;;5.93;;
4313;SDS011;2170;48.794;9.182;2024-01-15T21:35:45;7.60;;;5.03;;
4313;SDS011;2170;48.794;9.182;2024-01-15T21:38:34;5.30;;;4.90;;
4313;SDS011;2170;48.794;9.182;2024-01-15T21:41:11;5.60;;;5.10;;
4313;SDS011;2170;48.794;9.182;2024-01-15T21:44:00;5.30;;;4.80;;
4313;SDS011;2170;48.794;9.182;2024-01-15T21:46:40;5.60;;;5.10;;
4313;SDS011;2170;48.794;9.182;2024-01-15T21:49:20;6.53;;;5.80;;
4313;SDS011;2170;48.794;9.182;2024-01-15T21:52:02;4.93;;;4.43;;
4313;SDS011;2170;48.794;9.182;2024-01-15T21:54:40;4.67;;;4.27;;
4313;SDS011;2170;48.794;9.182;2024-01-15T21:57:31;5.50;;;4.83;;
4313;SDS011;2170;48.794;9.182;2024-01-15T22:00:08;5.40;;;4.90;;
4313;SDS011;2170;48.794;9.182;2024-01-15T22:02:58;7.23;;;5.60;;
4313;SDS011;2170;48.794;9.182;2024-01-15T22:05:35;5.87;;;5.43;;
4313;SDS011;2170;48.794;9.182;2024-01-15T22:08:18;5.70;;;5.20;;
4313;SDS011;2170;48.794;9.182;2024-01-15T22:11:00;6.10;;;5.50;;
4313;SDS011;2170;48.794;9.182;2024-01-15T22:13:53;6.13;;;5.50;;
4313;SDS011;2170;48.794;9.182;2024-01-15T22:16:41;5.20;;;4.70;;
4313;SDS011;2170;48.794;9.182;2024-01-15T22:19:23;6.77;;;5.20;;
4313;SDS011;2170;48.794;9.182;2024-01-15T22:22:02;5.53;;;4.93;;
4313;SDS011;2170;48.794;9.182;2024-01-15T22:24:36;7.37;;;6.60;;
4313;SDS011;2170;48.794;9.182;2024-01-15T22:27:28;5.10;;;4.70;;
4313;SDS011;2170;48.794;9.182;2024-01-15T22:30:18;8.00;;;4.80;;
4313;SDS011;2170;48.794;9.182;2024-01-15T22:33:00;4.97;;;4.60;;
4313;SDS011;2170;48.794;9.182;2024-01-15T22:35:41;5.33;;;4.83;;
4313;SDS011;2170;48.794;9.182;2024-01-15T22:38:33;5.80;;;5.30;;
4313;SDS011;2170;48.794;9.182;2024-01-15T22:41:04;5.33;;;4.83;;
4313;SDS011;2170;48.794;9.182;2024-01-15T22:43:52;6.10;;;4.60;;
4313;SDS011;2170;48.794;9.182;2024-01-15T22:46:21;7.80;;;5.27;;
4313;SDS011;2170;48.794;9.182;2024-01-15T22:49:04;5.80;;;5.30;;
4313;SDS011;2170;48.794;9.182;2024-01-15T22:54:53;5.60;;;4.40;;
4313;SDS011;2170;48.794;9.182;2024-01-15T22:57:22;9.10;;;5.10;;
4313;SDS011;2170;48.794;9.182;2024-01-15T23:00:05;8.70;;;5.33;;
4313;SDS011;2170;48.794;9.182;2024-01-15T23:02:59;5.80;;;5.30;;
4313;SDS011;2170;48.794;9.182;2024-01-15T23:08:21;5.73;;;5.10;;
4313;SDS011;2170;48.794;9.182;2024-01-15T23:11:13;6.10;;;5.50;;
4313;SDS011;2170;48.794;9.182;2024-01-15T23:13:44;5.67;;;5.10;;
4313;SDS011;2170;48.794;9.182;2024-01-15T23:16:16;5.03;;;4.63;;
4313;SDS011;2170;48.794;9.182;2024-01-15T23:18:45;5.07;;;4.60;;
4313;SDS011;2170;48.794;9.182;2024-01-15T23:21:23;5.57;;;5.17;;
4313;SDS011;2170;48.794;9.182;2024-01-15T23:23:58;5.93;;;5.33;;
4313;SDS011;2170;48.794;9.182;2024-01-15T23:26:36;5.80;;;4.93;;
4313;SDS011;2170;48.794;9.182;2024-01-15T23:29:10;5.97;;;5.40;;
4313;SDS011;2170;48.794;9.182;2024-01-15T23:31:44;6.10;;;5.10;;
4313;SDS011;2170;48.794;9.182;2024-01-15T23:34:24;6.57;;;5.20;;
4313;SDS011;2170;48.794;9.182;2024-01-15T23:37:04;5.63;;;5.13;;
4313;SDS011;2170;48.794;9.182;2024-01-15T23:39:43;6.27;;;5.33;;
4313;SDS011;2170;48.794;9.182;2024-01-15T23:42:25;5.10;;;4.70;;
4313;SDS011;2170;48.794;9.182;2024-01-15T23:44:59;7.33;;;5.40;;
4313;SDS011;2170;48.794;9.182;2024-01-15T23:47:38;6.23;;;4.80;;
4313;SDS011;2170;48.794;9.182;2024-01-15T23:50:12;5.53;;;5.03;;
4313;SDS011;2170;48.794;9.182;2024-01-15T23:52:43;6.70;;;5.27;;
4313;SDS011;2170;48.794;9.182;2024-01-15T23:55:23;6.70;;;4.90;;
4313;SDS011;2170;48.794;9.182;2024-01-15T23:58:02;6.77;;;5.60;;
